PTAO2: Poteau River, Poteau, OK

Data processed at Mon Sep 24 2018 22:32


All information presented herein is the property of the government of the United States of America and may be revised or deleted at any time without prior notice.
Dissemination of this information without the expressed written consent of the Public Affairs Office, Tulsa District U.S. Army Corps of Engineers is strictly prohibited.
These data are gathered electronically and, as presented, have not undergone any form of quality control. These data are not guaranteed to be valid or correct.
Go to home page.
Go to station list.
Go to home page.

Upstream stations:

Downstream station:
Previous Day
Next Day
Current Day
    
SHEF ID:       PTAO2     Poteau River at Poteau, OK
STATION TYPE:  

               PRECIP     STAGE  RIV-FLOW   VOLTAGE  BAT-LOAD
                   in        ft       cfs      volt      volt
              Ccp-Rev   Ccp-Rev   Ccp-Rev   Ccp-Rev   Ccp-Rev
(US/Central)
09/24 00:00      0.07      8.70      2363     12.57     12.49
09/24 01:00      0.03      8.33      2231     12.57     12.49
09/24 02:00      0.00      7.98      2108     12.57     12.41
09/24 03:00      0.00      7.64      1990     12.57     12.41
09/24 04:00      0.00      7.31      1878     12.57     12.41
09/24 05:00      0.01      7.00      1773     12.49     12.41
09/24 06:00      0.00      6.71      1677     12.49     12.41
09/24 07:00      0.00      6.44      1588     12.49     12.41
09/24 08:00      0.00      6.19      1506     12.57     12.41
09/24 09:00      0.00      5.98      1434     12.97     12.73
09/24 10:00      0.00      5.80      1374     13.37     13.21
09/24 11:00      0.00      5.66      1327     13.29     13.29
09/24 12:00      0.00      5.51      1278     13.68     13.21
09/24 13:00      0.00      5.41      1245     13.37     13.13
09/24 14:00      0.00      5.42      1248     13.29     13.21
09/24 15:00      0.00      5.65      1324     14.16     13.05
09/24 16:00      0.00      6.08      1469     14.00     13.05
09/24 17:00      0.00      6.69      1670     13.44     13.05
09/24 18:00      0.00      7.43      1918     13.13     13.05
09/24 19:00      0.00      8.20      2185     12.97     12.89
09/24 20:00      0.00      8.99      2468     12.73     12.73
09/24 21:00      0.00      9.72      2736     12.65     12.57
09/24 22:00      ----      ----      ----      ----      ----
09/24 23:00      ----      ----      ----      ----      ----